createdAt,value
2023-05-12T00:00:00.300Z,14.75
2023-05-12T00:02:27.087Z,17.33
2023-05-12T00:04:53.864Z,17.73
2023-05-12T00:07:20.421Z,20.45
2023-05-12T00:09:46.910Z,22.42
2023-05-12T00:12:13.554Z,20.73
2023-05-12T00:14:40.054Z,21.48
2023-05-12T00:17:06.756Z,24.40
2023-05-12T00:19:33.837Z,21.38
2023-05-12T00:22:00.662Z,21.98
2023-05-12T00:24:27.229Z,23.33
2023-05-12T00:26:54.244Z,21.42
2023-05-12T00:29:20.800Z,22.77
2023-05-12T00:31:47.394Z,22.92
2023-05-12T00:34:13.907Z,21.15
2023-05-12T00:36:40.519Z,21.05
2023-05-12T00:39:07.009Z,18.10
2023-05-12T00:41:33.548Z,18.63
2023-05-12T00:44:00.053Z,18.75
2023-05-12T00:46:27.283Z,19.13
2023-05-12T00:48:54.072Z,19.85
2023-05-12T00:51:20.620Z,18.83
2023-05-12T00:53:50.380Z,18.73
2023-05-12T00:56:19.102Z,18.98
2023-05-12T00:58:46.380Z,19.05
2023-05-12T01:01:14.599Z,18.52
2023-05-12T01:03:41.442Z,19.73
2023-05-12T01:06:45.326Z,18.33
2023-05-12T01:09:12.743Z,18.75
2023-05-12T01:11:39.314Z,18.33
2023-05-12T01:14:06.256Z,19.15
2023-05-12T01:16:45.912Z,17.60
2023-05-12T01:19:25.941Z,18.08
2023-05-12T01:21:52.971Z,18.20
2023-05-12T01:24:27.072Z,18.02
2023-05-12T01:26:53.632Z,16.58
2023-05-12T01:29:21.722Z,17.52
2023-05-12T01:31:49.768Z,16.60
2023-05-12T01:34:16.970Z,17.02
2023-05-12T01:36:43.940Z,15.77
2023-05-12T01:39:10.564Z,15.38
2023-05-12T01:41:37.239Z,17.75
2023-05-12T01:44:03.912Z,15.52
2023-05-12T01:46:30.562Z,16.00
2023-05-12T01:48:59.414Z,15.50
2023-05-12T01:51:26.679Z,16.25
2023-05-12T01:53:54.899Z,14.63
2023-05-12T01:56:21.421Z,13.15
2023-05-12T01:58:48.037Z,12.95
2023-05-12T02:01:14.945Z,13.95
2023-05-12T02:03:41.811Z,15.10
2023-05-12T02:06:12.551Z,15.20
2023-05-12T02:08:40.035Z,12.73
2023-05-12T02:11:08.903Z,13.27
2023-05-12T02:13:36.158Z,14.05
2023-05-12T02:16:03.404Z,13.50
2023-05-12T02:18:30.459Z,14.15
2023-05-12T02:20:57.311Z,13.93
2023-05-12T02:23:23.873Z,16.45
2023-05-12T02:25:50.448Z,14.73
2023-05-12T02:28:17.048Z,15.35
2023-05-12T02:30:48.298Z,14.52
2023-05-12T02:33:17.405Z,14.32
2023-05-12T02:35:44.679Z,14.98
2023-05-12T02:38:11.954Z,13.98
2023-05-12T02:40:38.777Z,15.48
2023-05-12T02:43:05.767Z,13.77
2023-05-12T02:45:32.870Z,13.50
2023-05-12T02:47:59.453Z,14.40
2023-05-12T02:50:26.145Z,14.90
2023-05-12T02:52:52.851Z,14.98
2023-05-12T02:55:19.445Z,15.50
2023-05-12T02:57:46.031Z,13.90
2023-05-12T03:00:12.932Z,13.18
2023-05-12T03:02:40.930Z,14.35
2023-05-12T03:05:08.181Z,13.60
2023-05-12T03:07:36.043Z,13.40
2023-05-12T03:10:02.837Z,12.95
2023-05-12T03:12:30.646Z,13.55
2023-05-12T03:15:00.756Z,13.25
2023-05-12T03:17:27.427Z,13.05
2023-05-12T03:19:54.054Z,12.82
2023-05-12T03:22:20.676Z,12.93
2023-05-12T03:24:47.170Z,12.90
2023-05-12T03:27:13.880Z,13.10
2023-05-12T03:29:40.679Z,13.50
2023-05-12T03:32:07.562Z,11.95
2023-05-12T03:34:34.414Z,11.57
2023-05-12T03:37:01.023Z,12.30
2023-05-12T03:39:27.501Z,11.30
2023-05-12T03:41:54.712Z,11.10
2023-05-12T03:44:21.202Z,11.38
2023-05-12T03:46:47.869Z,10.45
2023-05-12T03:49:14.396Z,10.57
2023-05-12T03:51:41.152Z,10.07
2023-05-12T03:54:08.002Z,10.65
2023-05-12T03:56:34.587Z,10.52
2023-05-12T03:59:01.124Z,11.15
2023-05-12T04:01:27.816Z,11.35
2023-05-12T04:03:54.422Z,11.15
2023-05-12T04:06:21.221Z,11.45
2023-05-12T04:08:47.724Z,12.10
2023-05-12T04:11:14.261Z,13.77
2023-05-12T04:13:44.599Z,13.02
2023-05-12T04:16:11.155Z,13.52
2023-05-12T04:18:37.740Z,11.77
2023-05-12T04:21:04.362Z,10.50
2023-05-12T04:23:30.923Z,9.70
2023-05-12T04:25:57.474Z,9.60
2023-05-12T04:28:24.004Z,9.20
2023-05-12T04:30:50.614Z,8.45
2023-05-12T04:33:17.429Z,8.77
2023-05-12T04:35:44.296Z,8.55
2023-05-12T04:38:12.822Z,7.78
2023-05-12T04:40:39.975Z,7.35
2023-05-12T04:43:06.753Z,7.43
2023-05-12T04:45:33.277Z,7.45
2023-05-12T04:47:59.974Z,6.43
2023-05-12T04:50:26.552Z,6.70
2023-05-12T04:52:53.021Z,6.28
2023-05-12T04:55:19.799Z,7.07
2023-05-12T04:57:46.514Z,6.15
2023-05-12T05:00:13.419Z,4.72
2023-05-12T05:02:40.283Z,5.38
2023-05-12T05:05:07.430Z,5.32
2023-05-12T05:07:34.283Z,5.18
2023-05-12T05:10:01.486Z,5.18
2023-05-12T05:12:28.908Z,5.13
2023-05-12T05:14:55.563Z,5.15
2023-05-12T05:17:22.856Z,4.95
2023-05-12T05:19:55.969Z,4.68
2023-05-12T05:22:25.641Z,4.10
2023-05-12T05:24:52.291Z,4.15
2023-05-12T05:27:19.106Z,3.78
2023-05-12T05:29:45.807Z,4.43
2023-05-12T05:32:12.401Z,3.92
2023-05-12T05:34:39.834Z,4.00
2023-05-12T05:37:06.460Z,3.58
2023-05-12T05:39:32.971Z,3.80
2023-05-12T05:41:59.874Z,3.58
2023-05-12T05:44:26.446Z,3.42
2023-05-12T05:46:53.578Z,2.95
2023-05-12T05:49:21.054Z,2.95
2023-05-12T05:51:47.838Z,2.88
2023-05-12T05:54:15.769Z,3.22
2023-05-12T05:56:42.289Z,2.92
2023-05-12T05:59:08.783Z,3.25
2023-05-12T06:01:35.954Z,3.03
2023-05-12T06:04:03.015Z,3.10
2023-05-12T06:06:30.053Z,3.10
2023-05-12T06:08:56.765Z,3.40
2023-05-12T06:11:23.445Z,3.60
2023-05-12T06:13:50.597Z,3.83
2023-05-12T06:16:17.387Z,3.13
2023-05-12T06:18:44.211Z,3.38
2023-05-12T06:21:11.668Z,2.95
2023-05-12T06:23:38.429Z,2.70
2023-05-12T06:26:05.316Z,2.67
2023-05-12T06:28:32.088Z,2.28
2023-05-12T06:30:58.658Z,2.22
2023-05-12T06:33:25.245Z,2.40
2023-05-12T06:35:51.833Z,2.33
2023-05-12T06:38:18.334Z,2.40
2023-05-12T06:40:44.879Z,2.83
2023-05-12T06:43:11.536Z,2.25
2023-05-12T06:45:38.070Z,3.03
2023-05-12T06:48:08.383Z,1.75
2023-05-12T06:50:34.995Z,1.83
2023-05-12T06:53:02.018Z,1.92
2023-05-12T06:55:28.529Z,1.75
2023-05-12T06:57:55.040Z,1.80
2023-05-12T07:00:23.589Z,1.48
2023-05-12T07:02:50.771Z,2.05
2023-05-12T07:05:17.291Z,2.00
2023-05-12T07:07:44.824Z,1.80
2023-05-12T07:10:11.566Z,2.40
2023-05-12T07:12:38.171Z,2.65
2023-05-12T07:15:05.656Z,1.92
2023-05-12T07:17:32.215Z,1.88
2023-05-12T07:19:59.102Z,2.05
2023-05-12T07:22:25.674Z,2.28
2023-05-12T07:24:52.804Z,1.88
2023-05-12T07:27:19.573Z,2.47
2023-05-12T07:29:46.196Z,2.10
2023-05-12T07:32:12.678Z,2.25
2023-05-12T07:34:39.240Z,2.33
2023-05-12T07:37:06.040Z,2.25
2023-05-12T07:39:32.870Z,2.08
2023-05-12T07:41:59.632Z,2.55
2023-05-12T07:44:27.128Z,2.83
2023-05-12T07:46:53.727Z,2.47
2023-05-12T07:49:20.393Z,2.10
2023-05-12T07:51:46.994Z,1.80
2023-05-12T07:54:13.840Z,1.90
2023-05-12T07:56:40.379Z,2.03
2023-05-12T07:59:07.121Z,2.08
2023-05-12T08:01:33.842Z,1.90
2023-05-12T08:04:00.570Z,1.90
2023-05-12T08:06:27.178Z,2.08
2023-05-12T08:08:53.806Z,2.20
2023-05-12T08:11:20.536Z,1.83
2023-05-12T08:13:47.831Z,2.15
2023-05-12T08:16:14.593Z,2.00
2023-05-12T08:18:41.246Z,2.50
2023-05-12T08:21:08.069Z,1.95
2023-05-12T08:23:34.634Z,2.10
2023-05-12T08:26:01.125Z,1.90
2023-05-12T08:28:27.623Z,1.58
2023-05-12T08:30:54.185Z,1.88
2023-05-12T08:33:21.103Z,1.90
2023-05-12T08:35:48.000Z,1.70
2023-05-12T08:38:14.651Z,1.50
2023-05-12T08:40:50.658Z,1.73
2023-05-12T08:43:31.130Z,1.65
2023-05-12T08:45:58.091Z,1.60
2023-05-12T08:48:26.842Z,1.40
2023-05-12T08:50:54.753Z,1.17
2023-05-12T08:53:22.151Z,1.38
2023-05-12T08:57:08.263Z,1.35
2023-05-12T08:58:41.807Z,1.60
2023-05-12T09:01:11.298Z,1.50
2023-05-12T09:03:38.224Z,1.63
2023-05-12T09:06:06.257Z,1.38
2023-05-12T09:08:33.565Z,1.33
2023-05-12T09:11:01.086Z,1.30
2023-05-12T09:13:47.771Z,1.10
2023-05-12T09:16:18.606Z,1.55
2023-05-12T09:18:53.194Z,1.27
2023-05-12T09:21:20.255Z,1.35
2023-05-12T09:23:53.886Z,1.35
2023-05-12T09:26:20.913Z,2.03
2023-05-12T09:28:47.444Z,1.10
2023-05-12T09:31:32.546Z,1.52
2023-05-12T09:33:59.399Z,1.45
2023-05-12T09:36:26.395Z,1.20
2023-05-12T09:39:07.231Z,1.20
2023-05-12T09:41:37.509Z,2.00
2023-05-12T09:44:05.068Z,1.58
2023-05-12T09:46:31.681Z,1.42
2023-05-12T09:48:59.288Z,1.55
2023-05-12T09:51:27.054Z,1.42
2023-05-12T09:53:53.671Z,1.70
2023-05-12T09:56:20.308Z,2.00
2023-05-12T09:58:49.248Z,2.00
2023-05-12T10:01:23.288Z,2.03
2023-05-12T10:03:55.458Z,2.83
2023-05-12T10:06:27.364Z,1.85
2023-05-12T10:09:06.346Z,1.98
2023-05-12T10:11:33.230Z,2.25
2023-05-12T10:14:00.522Z,1.77
2023-05-12T10:16:29.030Z,2.42
2023-05-12T10:18:56.345Z,2.00
2023-05-12T10:21:24.728Z,2.00
2023-05-12T10:23:54.426Z,2.50
2023-05-12T10:26:37.498Z,2.40
2023-05-12T10:29:04.086Z,2.50
2023-05-12T10:31:31.069Z,2.75
2023-05-12T10:33:59.024Z,2.22
2023-05-12T10:36:25.993Z,2.67
2023-05-12T10:38:53.032Z,2.33
2023-05-12T10:41:34.649Z,3.00
2023-05-12T10:46:28.225Z,3.40
2023-05-12T10:49:03.959Z,3.58
2023-05-12T10:51:33.234Z,2.90
2023-05-12T10:54:08.289Z,2.78
2023-05-12T10:56:38.448Z,2.97
2023-05-12T10:59:26.231Z,2.80
2023-05-12T11:04:22.872Z,2.60
2023-05-12T11:06:59.400Z,2.35
2023-05-12T11:09:26.929Z,2.47
2023-05-12T11:11:54.259Z,3.00
2023-05-12T11:14:21.040Z,2.60
2023-05-12T11:16:47.625Z,3.75
2023-05-12T11:19:14.418Z,2.53
2023-05-12T11:21:40.983Z,2.40
2023-05-12T11:24:08.048Z,2.55
2023-05-12T11:26:34.618Z,2.53
2023-05-12T11:29:03.492Z,2.97
2023-05-12T11:31:30.166Z,2.85
2023-05-12T11:34:11.838Z,2.50
2023-05-12T11:36:44.064Z,2.50
2023-05-12T11:39:29.787Z,2.97
2023-05-12T11:42:11.586Z,2.67
2023-05-12T11:44:47.684Z,2.85
2023-05-12T11:47:15.329Z,2.70
2023-05-12T11:49:53.206Z,2.60
2023-05-12T11:52:21.579Z,2.65
2023-05-12T11:54:58.879Z,2.88
2023-05-12T11:57:33.860Z,2.72
2023-05-12T12:00:06.032Z,2.67
2023-05-12T12:02:33.099Z,2.28
2023-05-12T12:05:00.207Z,3.20
2023-05-12T12:07:34.375Z,3.03
2023-05-12T12:10:15.390Z,3.55
2023-05-12T12:12:42.844Z,3.33
2023-05-12T12:15:10.550Z,3.35
2023-05-12T12:17:37.707Z,3.72
2023-05-12T12:20:04.701Z,3.85
2023-05-12T12:22:31.381Z,4.28
2023-05-12T12:24:57.920Z,4.32
2023-05-12T12:27:24.457Z,4.75
2023-05-12T12:29:50.979Z,5.40
2023-05-12T12:32:17.618Z,5.97
2023-05-12T12:34:44.246Z,7.15
2023-05-12T12:37:11.069Z,7.40
2023-05-12T12:39:37.769Z,6.93
2023-05-12T12:42:05.077Z,7.05
2023-05-12T12:44:31.681Z,7.13
2023-05-12T12:46:58.252Z,7.72
2023-05-12T12:49:24.819Z,7.28
2023-05-12T12:51:51.392Z,7.28
2023-05-12T12:54:17.936Z,7.20
2023-05-12T12:56:44.503Z,6.93
2023-05-12T12:59:11.046Z,7.35
2023-05-12T13:01:38.562Z,7.47
2023-05-12T13:04:05.141Z,7.63
2023-05-12T13:06:32.152Z,8.35
2023-05-12T13:08:58.638Z,8.35
2023-05-12T13:11:25.239Z,7.72
2023-05-12T13:13:51.691Z,8.48
2023-05-12T13:16:18.346Z,7.72
2023-05-12T13:18:44.990Z,7.78
2023-05-12T13:21:11.710Z,7.32
2023-05-12T13:23:38.211Z,8.85
2023-05-12T13:26:04.880Z,8.75
2023-05-12T13:28:31.351Z,8.32
2023-05-12T13:30:58.241Z,8.15
2023-05-12T13:33:24.837Z,8.27
2023-05-12T13:35:51.706Z,8.30
2023-05-12T13:38:18.257Z,6.97
2023-05-12T13:40:44.812Z,7.20
2023-05-12T13:43:11.310Z,6.72
2023-05-12T13:45:37.962Z,7.57
2023-05-12T13:48:04.918Z,6.88
2023-05-12T13:50:33.447Z,6.80
2023-05-12T13:53:00.446Z,6.60
2023-05-12T13:55:27.491Z,6.03
2023-05-12T13:57:54.128Z,6.30
2023-05-12T14:00:20.924Z,6.05
2023-05-12T14:02:47.528Z,7.13
2023-05-12T14:05:14.277Z,6.47
2023-05-12T14:07:40.849Z,6.22
2023-05-12T14:10:07.951Z,6.55
2023-05-12T14:12:34.411Z,5.82
2023-05-12T14:15:15.869Z,5.72
2023-05-12T14:17:47.610Z,5.25
2023-05-12T14:20:14.253Z,5.32
2023-05-12T14:22:40.985Z,5.82
2023-05-12T14:25:08.026Z,6.38
2023-05-12T14:27:34.617Z,5.93
2023-05-12T14:30:01.342Z,5.63
2023-05-12T14:32:27.901Z,5.88
2023-05-12T14:34:54.516Z,6.53
2023-05-12T14:37:21.174Z,5.70
2023-05-12T14:39:47.688Z,5.95
2023-05-12T14:42:14.225Z,6.25
2023-05-12T14:44:40.822Z,5.80
2023-05-12T14:47:08.973Z,6.30
2023-05-12T14:49:36.669Z,5.57
2023-05-12T14:52:03.620Z,6.15
2023-05-12T14:54:30.244Z,5.82
2023-05-12T14:56:56.848Z,6.38
2023-05-12T14:59:23.422Z,6.68
2023-05-12T15:01:50.322Z,6.50
2023-05-12T15:04:17.202Z,7.70
2023-05-12T15:06:43.734Z,5.75
2023-05-12T15:09:10.275Z,7.05
2023-05-12T15:11:36.973Z,6.32
2023-05-12T15:14:03.712Z,7.45
2023-05-12T15:16:31.468Z,7.20
2023-05-12T15:18:59.013Z,7.25
2023-05-12T15:21:26.353Z,7.13
2023-05-12T15:23:53.061Z,9.43
2023-05-12T15:26:32.127Z,7.97
2023-05-12T15:29:00.713Z,7.45
2023-05-12T15:31:30.484Z,6.88
2023-05-12T15:33:57.685Z,8.43
2023-05-12T15:36:24.222Z,7.72
2023-05-12T15:38:50.817Z,7.63
2023-05-12T15:41:17.573Z,9.48
2023-05-12T15:43:44.210Z,8.15
2023-05-12T15:46:11.069Z,7.72
2023-05-12T15:48:37.845Z,7.47
2023-05-12T15:51:04.703Z,8.18
2023-05-12T15:53:31.498Z,8.07
2023-05-12T15:56:02.108Z,8.27
2023-05-12T15:58:28.920Z,7.70
2023-05-12T16:00:56.272Z,8.25
2023-05-12T16:03:23.407Z,8.13
2023-05-12T16:05:50.293Z,8.18
2023-05-12T16:08:16.918Z,6.68
2023-05-12T16:10:43.558Z,7.22
2023-05-12T16:13:10.243Z,6.30
2023-05-12T16:15:36.844Z,8.55
2023-05-12T16:18:03.708Z,6.50
2023-05-12T16:20:30.335Z,6.70
2023-05-12T16:22:57.132Z,6.82
2023-05-12T16:25:23.899Z,6.80
2023-05-12T16:27:50.569Z,6.32
2023-05-12T16:30:19.778Z,6.00
2023-05-12T16:32:46.908Z,6.22
2023-05-12T16:35:13.721Z,6.50
2023-05-12T16:37:40.484Z,6.53
2023-05-12T16:40:07.768Z,6.45
2023-05-12T16:42:34.286Z,7.18
2023-05-12T16:45:00.796Z,6.88
2023-05-12T16:47:27.536Z,7.25
2023-05-12T16:49:54.103Z,7.53
2023-05-12T16:52:20.724Z,7.68
2023-05-12T16:54:47.256Z,7.22
2023-05-12T16:57:13.883Z,7.57
2023-05-12T16:59:40.418Z,7.68
2023-05-12T17:02:07.779Z,8.40
2023-05-12T17:04:34.530Z,7.50
2023-05-12T17:07:01.052Z,7.65
2023-05-12T17:09:27.952Z,7.85
2023-05-12T17:11:54.460Z,7.53
2023-05-12T17:14:21.122Z,7.45
2023-05-12T17:16:47.674Z,8.20
2023-05-12T17:19:14.930Z,10.38
2023-05-12T17:21:41.878Z,6.18
2023-05-12T17:24:08.931Z,7.10
2023-05-12T17:26:36.051Z,8.43
2023-05-12T17:29:02.896Z,6.22
2023-05-12T17:31:29.702Z,6.82
2023-05-12T17:33:56.445Z,6.85
2023-05-12T17:36:23.401Z,7.25
2023-05-12T17:38:50.825Z,8.30
2023-05-12T17:41:17.961Z,10.20
2023-05-12T17:43:44.467Z,8.27
2023-05-12T17:46:11.246Z,7.25
2023-05-12T17:48:38.047Z,8.25
2023-05-12T17:51:05.051Z,8.57
2023-05-12T17:53:32.293Z,10.80
2023-05-12T17:55:59.742Z,10.95
2023-05-12T17:58:26.634Z,8.63
2023-05-12T18:00:53.686Z,9.80
2023-05-12T18:03:20.546Z,10.88
2023-05-12T18:05:47.107Z,9.40
2023-05-12T18:08:13.602Z,10.93
2023-05-12T18:10:40.071Z,14.57
2023-05-12T18:13:06.990Z,15.43
2023-05-12T18:15:33.452Z,11.38
2023-05-12T18:18:00.052Z,8.82
2023-05-12T18:20:26.636Z,10.15
2023-05-12T18:22:53.171Z,9.10
2023-05-12T18:25:20.532Z,6.95
2023-05-12T18:27:47.290Z,8.38
2023-05-12T18:30:14.547Z,7.57
2023-05-12T18:32:41.146Z,7.57
2023-05-12T18:35:08.849Z,8.20
2023-05-12T18:37:35.471Z,8.27
2023-05-12T18:40:02.022Z,8.50
2023-05-12T18:42:28.592Z,11.50
2023-05-12T18:44:55.121Z,9.25
2023-05-12T18:47:21.640Z,7.97
2023-05-12T18:49:48.307Z,8.80
2023-05-12T18:52:14.923Z,8.80
2023-05-12T18:54:41.528Z,7.68
2023-05-12T18:57:08.049Z,9.18
2023-05-12T18:59:34.528Z,8.63
2023-05-12T19:02:01.298Z,8.07
2023-05-12T19:04:27.880Z,7.95
2023-05-12T19:06:54.385Z,9.27
2023-05-12T19:09:20.884Z,8.48
2023-05-12T19:11:47.386Z,7.82
2023-05-12T19:14:13.884Z,9.88
2023-05-12T19:16:40.502Z,8.30
2023-05-12T19:19:07.091Z,9.48
2023-05-12T19:21:33.805Z,8.35
2023-05-12T19:24:00.341Z,8.95
2023-05-12T19:26:26.940Z,7.63
2023-05-12T19:28:53.433Z,8.23
2023-05-12T19:31:20.095Z,8.82
2023-05-12T19:33:46.628Z,8.88
2023-05-12T19:36:13.185Z,7.80
2023-05-12T19:38:39.641Z,9.15
2023-05-12T19:41:06.202Z,8.73
2023-05-12T19:43:32.713Z,9.00
2023-05-12T19:45:59.292Z,7.93
2023-05-12T19:48:25.846Z,8.93
2023-05-12T19:50:53.894Z,11.82
2023-05-12T19:53:20.395Z,15.48
2023-05-12T19:55:46.936Z,16.33
2023-05-12T19:58:13.715Z,9.00
2023-05-12T20:00:40.253Z,20.52
2023-05-12T20:03:06.852Z,23.02
2023-05-12T20:05:36.570Z,19.50
2023-05-12T20:08:03.318Z,7.78
2023-05-12T20:10:29.882Z,8.27
2023-05-12T20:12:56.311Z,9.27
2023-05-12T20:15:23.073Z,8.48
2023-05-12T20:17:49.892Z,8.52
2023-05-12T20:20:16.775Z,8.00
2023-05-12T20:22:43.302Z,8.65
2023-05-12T20:25:10.038Z,9.27
2023-05-12T20:27:36.514Z,8.85
2023-05-12T20:30:03.184Z,8.50
2023-05-12T20:32:30.077Z,9.45
2023-05-12T20:34:56.670Z,6.28
2023-05-12T20:37:23.202Z,7.35
2023-05-12T20:39:49.699Z,9.20
2023-05-12T20:42:16.280Z,7.78
2023-05-12T20:44:42.906Z,9.10
2023-05-12T20:47:09.632Z,7.43
2023-05-12T20:49:36.407Z,7.47
2023-05-12T20:52:03.010Z,7.38
2023-05-12T20:54:29.580Z,7.85
2023-05-12T20:56:56.337Z,7.65
2023-05-12T20:59:22.934Z,7.93
2023-05-12T21:01:49.386Z,7.55
2023-05-12T21:04:16.669Z,7.28
2023-05-12T21:06:43.229Z,7.55
2023-05-12T21:09:09.760Z,7.22
2023-05-12T21:11:36.339Z,8.85
2023-05-12T21:14:02.908Z,7.15
2023-05-12T21:16:29.715Z,7.43
2023-05-12T21:18:56.526Z,7.03
2023-05-12T21:21:23.120Z,7.47
2023-05-12T21:23:49.675Z,7.90
2023-05-12T21:26:16.167Z,7.28
2023-05-12T21:28:43.054Z,7.00
2023-05-12T21:31:09.813Z,7.05
2023-05-12T21:33:36.635Z,7.03
2023-05-12T21:36:03.377Z,6.90
2023-05-12T21:38:31.631Z,7.80
2023-05-12T21:40:58.927Z,7.32
2023-05-12T21:43:25.424Z,6.95
2023-05-12T21:45:52.010Z,7.35
2023-05-12T21:48:18.542Z,6.53
2023-05-12T21:52:29.902Z,6.43
2023-05-12T21:54:56.412Z,6.15
2023-05-12T21:57:22.877Z,6.70
2023-05-12T21:59:49.361Z,7.32
2023-05-12T22:02:15.823Z,7.28
2023-05-12T22:04:42.297Z,7.05
2023-05-12T22:07:08.825Z,6.72
2023-05-12T22:09:35.358Z,7.30
2023-05-12T22:12:01.855Z,6.45
2023-05-12T22:14:28.360Z,6.18
2023-05-12T22:16:54.917Z,6.45
2023-05-12T22:19:21.444Z,7.30
2023-05-12T22:21:47.950Z,7.20
2023-05-12T22:24:14.889Z,7.03
2023-05-12T22:26:41.336Z,7.40
2023-05-12T22:29:07.817Z,7.20
2023-05-12T22:31:34.357Z,7.00
2023-05-12T22:34:00.858Z,5.70
2023-05-12T22:36:27.353Z,6.90
2023-05-12T22:38:53.852Z,6.47
2023-05-12T22:41:20.339Z,6.90
2023-05-12T22:43:46.826Z,6.72
2023-05-12T22:46:13.359Z,6.90
2023-05-12T22:48:39.930Z,6.18
2023-05-12T22:51:06.684Z,6.95
2023-05-12T22:53:35.379Z,8.13
2023-05-12T22:56:02.803Z,6.68
2023-05-12T22:58:29.267Z,6.68
2023-05-12T23:00:55.883Z,6.63
2023-05-12T23:03:22.382Z,7.03
2023-05-12T23:05:48.886Z,7.22
2023-05-12T23:08:15.332Z,7.55
2023-05-12T23:10:41.898Z,6.90
2023-05-12T23:13:08.547Z,6.57
2023-05-12T23:15:35.121Z,6.30
2023-05-12T23:18:01.679Z,6.75
2023-05-12T23:20:28.398Z,6.10
2023-05-12T23:22:54.899Z,6.97
2023-05-12T23:25:21.506Z,6.25
2023-05-12T23:27:47.994Z,7.18
2023-05-12T23:30:14.595Z,6.80
2023-05-12T23:32:41.350Z,6.22
2023-05-12T23:35:08.670Z,6.50
2023-05-12T23:37:35.334Z,6.10
2023-05-12T23:40:01.956Z,6.47
2023-05-12T23:42:28.407Z,7.95
2023-05-12T23:44:55.202Z,6.10
2023-05-12T23:47:21.690Z,6.68
2023-05-12T23:49:48.289Z,6.28
2023-05-12T23:52:14.755Z,7.53
2023-05-12T23:54:41.274Z,6.80
2023-05-12T23:57:07.747Z,6.45
2023-05-12T23:59:34.343Z,6.03
